createdAt,value
2019-03-01T00:01:01.862Z,26.97
2019-03-01T00:03:33.382Z,29.67
2019-03-01T00:06:22.116Z,28.95
2019-03-01T00:09:21.412Z,30.05
2019-03-01T00:12:12.007Z,26.80
2019-03-01T00:15:10.972Z,26.15
2019-03-01T00:17:44.897Z,27.37
2019-03-01T00:20:37.000Z,24.95
2019-03-01T00:23:16.183Z,27.85
2019-03-01T00:26:18.623Z,24.90
2019-03-01T00:29:04.311Z,25.50
2019-03-01T00:31:43.982Z,26.33
2019-03-01T00:34:26.784Z,28.33
2019-03-01T00:37:09.520Z,26.77
2019-03-01T00:39:45.987Z,27.00
2019-03-01T00:42:48.873Z,26.65
2019-03-01T00:45:19.608Z,25.20
2019-03-01T00:47:50.260Z,24.60
2019-03-01T00:52:51.682Z,20.90
2019-03-01T00:55:22.540Z,22.30
2019-03-01T00:57:53.293Z,20.37
2019-03-01T01:00:36.219Z,21.60
2019-03-01T01:03:07.075Z,23.87
2019-03-01T01:05:37.979Z,20.95
2019-03-01T01:08:08.785Z,21.33
2019-03-01T01:10:39.438Z,20.95
2019-03-01T01:13:10.295Z,22.80
2019-03-01T01:15:41.047Z,22.85
2019-03-01T01:18:11.680Z,22.75
2019-03-01T01:23:12.186Z,20.57
2019-03-01T01:25:42.941Z,21.52
2019-03-01T01:28:13.573Z,18.17
2019-03-01T01:30:44.328Z,18.45
2019-03-01T01:33:15.198Z,19.62
2019-03-01T01:35:45.957Z,14.35
2019-03-01T01:38:16.604Z,18.12
2019-03-01T01:40:47.467Z,19.20
2019-03-01T01:43:18.216Z,17.07
2019-03-01T01:45:48.969Z,16.62
2019-03-01T01:48:19.826Z,13.72
2019-03-01T01:50:50.563Z,11.50
2019-03-01T01:53:22.340Z,11.45
2019-03-01T01:55:53.216Z,11.95
2019-03-01T01:58:23.866Z,11.12
2019-03-01T02:00:54.602Z,12.45
2019-03-01T02:03:25.473Z,9.65
2019-03-01T02:05:56.023Z,12.65
2019-03-01T02:10:56.391Z,11.83
2019-03-01T02:15:56.992Z,12.93
2019-03-01T02:18:27.748Z,14.13
2019-03-01T02:20:58.505Z,13.90
2019-03-01T02:23:29.036Z,13.05
2019-03-01T02:25:59.892Z,12.07
2019-03-01T02:28:30.647Z,13.80
2019-03-01T02:31:04.486Z,13.22
2019-03-01T02:33:35.139Z,13.43
2019-03-01T02:36:05.975Z,13.80
2019-03-01T02:38:36.746Z,15.00
2019-03-01T02:41:07.501Z,16.48
2019-03-01T02:43:38.047Z,15.32
2019-03-01T02:46:08.904Z,15.90
2019-03-01T02:48:39.762Z,14.47
2019-03-01T02:51:10.502Z,17.55
2019-03-01T02:53:42.088Z,17.55
2019-03-01T02:56:12.636Z,18.27
2019-03-01T02:58:43.168Z,18.67
2019-03-01T03:01:14.058Z,18.02
2019-03-01T03:03:44.898Z,17.20
2019-03-01T03:06:23.221Z,18.55
2019-03-01T03:08:53.873Z,16.62
2019-03-01T03:11:24.717Z,17.62
2019-03-01T03:13:55.364Z,17.02
2019-03-01T03:16:26.424Z,15.30
2019-03-01T03:18:56.973Z,16.48
2019-03-01T03:21:27.851Z,15.05
2019-03-01T03:23:58.483Z,16.20
2019-03-01T03:26:29.254Z,13.95
2019-03-01T03:29:00.113Z,14.07
2019-03-01T03:31:30.977Z,15.48
2019-03-01T03:34:01.600Z,13.70
2019-03-01T03:39:02.204Z,13.90
2019-03-01T03:41:32.854Z,13.45
2019-03-01T03:44:03.725Z,13.95
2019-03-01T03:46:34.575Z,13.70
2019-03-01T03:49:05.322Z,14.87
2019-03-01T03:51:35.956Z,14.45
2019-03-01T03:54:07.734Z,13.90
2019-03-01T03:56:38.689Z,13.50
2019-03-01T03:59:09.466Z,14.07
2019-03-01T04:01:40.226Z,14.00
2019-03-01T04:04:10.967Z,14.07
2019-03-01T04:06:41.827Z,16.97
2019-03-01T04:09:12.477Z,16.20
2019-03-01T04:11:43.231Z,19.50
2019-03-01T04:14:13.880Z,19.57
2019-03-01T04:16:44.723Z,20.95
2019-03-01T04:19:15.501Z,31.07
2019-03-01T04:21:46.233Z,31.27
2019-03-01T04:24:17.104Z,36.45
2019-03-01T04:26:47.958Z,37.23
2019-03-01T04:29:18.305Z,39.48
2019-03-01T04:31:49.058Z,38.30
2019-03-01T04:34:19.708Z,41.42
2019-03-01T04:36:50.552Z,44.05
2019-03-01T04:39:21.423Z,53.52
2019-03-01T04:41:52.175Z,38.38
2019-03-01T04:44:22.827Z,31.33
2019-03-01T04:46:53.665Z,31.55
2019-03-01T04:49:24.316Z,29.37
2019-03-01T04:51:55.086Z,26.17
2019-03-01T04:54:26.660Z,23.12
2019-03-01T04:56:57.526Z,23.52
2019-03-01T04:59:28.371Z,20.12
2019-03-01T05:01:59.230Z,21.02
2019-03-01T05:04:29.982Z,25.97
2019-03-01T05:07:00.616Z,22.05
2019-03-01T05:09:31.375Z,20.15
2019-03-01T05:12:02.226Z,23.12
2019-03-01T05:14:32.998Z,23.27
2019-03-01T05:17:03.655Z,20.15
2019-03-01T05:19:34.386Z,22.93
2019-03-01T05:22:05.259Z,23.92
2019-03-01T05:24:35.895Z,22.98
2019-03-01T05:29:36.394Z,19.60
2019-03-01T05:32:07.031Z,21.82
2019-03-01T05:37:07.536Z,15.83
2019-03-01T05:39:38.183Z,16.10
2019-03-01T05:42:09.041Z,15.00
2019-03-01T05:44:39.880Z,15.15
2019-03-01T05:47:10.531Z,13.80
2019-03-01T05:52:11.033Z,10.73
2019-03-01T05:54:42.693Z,9.25
2019-03-01T05:57:13.463Z,9.23
2019-03-01T05:59:44.115Z,10.05
2019-03-01T06:02:26.918Z,7.75
2019-03-01T06:04:59.223Z,8.33
2019-03-01T06:07:49.513Z,8.70
2019-03-01T06:10:26.283Z,7.20
2019-03-01T06:13:16.569Z,8.48
2019-03-01T06:16:11.055Z,7.72
2019-03-01T06:19:01.053Z,7.83
2019-03-01T06:21:55.943Z,8.10
2019-03-01T06:24:46.027Z,7.47
2019-03-01T06:27:51.660Z,9.08
2019-03-01T06:30:51.656Z,6.28
2019-03-01T06:33:39.684Z,6.92
2019-03-01T06:36:27.824Z,6.87
2019-03-01T06:39:17.312Z,6.30
2019-03-01T06:41:53.569Z,9.00
2019-03-01T06:44:30.519Z,7.17
2019-03-01T06:47:25.376Z,7.47
2019-03-01T06:50:03.282Z,6.92
2019-03-01T06:52:33.934Z,8.73
2019-03-01T06:55:07.838Z,8.50
2019-03-01T06:57:38.498Z,9.38
2019-03-01T07:02:43.497Z,11.95
2019-03-01T07:05:14.043Z,10.58
2019-03-01T07:10:14.411Z,11.33
2019-03-01T07:12:45.165Z,12.50
2019-03-01T07:15:15.835Z,10.10
2019-03-01T07:17:46.691Z,9.28
2019-03-01T07:20:17.218Z,9.43
2019-03-01T07:25:17.703Z,8.75
2019-03-01T07:30:18.292Z,6.15
2019-03-01T07:35:18.574Z,8.50
2019-03-01T07:40:19.083Z,7.35
2019-03-01T07:45:19.460Z,7.03
2019-03-01T07:47:50.009Z,7.30
2019-03-01T07:50:20.563Z,8.85
2019-03-01T07:52:51.090Z,8.65
2019-03-01T07:55:24.906Z,7.08
2019-03-01T07:57:54.643Z,7.42
2019-03-01T08:00:25.211Z,6.70
2019-03-01T08:02:55.875Z,5.87
2019-03-01T08:05:26.515Z,6.92
2019-03-01T08:08:02.607Z,6.40
2019-03-01T08:10:29.558Z,4.00
2019-03-01T08:13:00.108Z,3.60
2019-03-01T08:15:30.597Z,3.85
2019-03-01T08:18:04.622Z,3.52
2019-03-01T08:20:33.839Z,4.00
2019-03-01T08:23:04.553Z,10.25
2019-03-01T08:25:35.304Z,3.12
2019-03-01T08:30:35.806Z,5.20
2019-03-01T08:35:37.604Z,5.58
2019-03-01T08:40:46.672Z,4.87
2019-03-01T08:43:17.929Z,7.03
2019-03-01T08:48:18.314Z,6.53
2019-03-01T08:53:18.693Z,6.93
2019-03-01T08:55:52.096Z,4.20
2019-03-01T08:58:22.472Z,3.20
2019-03-01T09:03:27.233Z,3.65
2019-03-01T09:05:57.799Z,4.03
2019-03-01T09:10:58.296Z,4.40
2019-03-01T09:15:59.033Z,5.55
2019-03-01T09:18:46.641Z,5.78
2019-03-01T09:21:17.148Z,5.22
2019-03-01T09:26:19.989Z,6.28
2019-03-01T09:28:51.034Z,6.03
2019-03-01T09:33:53.765Z,3.93
2019-03-01T09:36:27.899Z,3.65
2019-03-01T09:38:58.462Z,3.85
2019-03-01T09:41:29.011Z,4.10
2019-03-01T09:44:02.718Z,3.70
2019-03-01T09:46:31.528Z,3.60
2019-03-01T09:51:32.115Z,3.15
2019-03-01T09:54:02.682Z,3.25
2019-03-01T09:59:03.369Z,2.90
2019-03-01T10:04:03.738Z,3.20
2019-03-01T10:06:38.056Z,3.37
2019-03-01T10:09:09.440Z,2.40
2019-03-01T10:11:39.986Z,3.08
2019-03-01T10:16:40.287Z,3.22
2019-03-01T10:21:40.547Z,3.27
2019-03-01T10:24:11.200Z,4.55
2019-03-01T10:29:21.706Z,4.33
2019-03-01T10:31:52.544Z,4.15
2019-03-01T10:34:23.127Z,4.60
2019-03-01T10:36:53.783Z,3.90
2019-03-01T10:39:24.433Z,3.92
2019-03-01T10:41:54.964Z,4.85
2019-03-01T10:46:55.467Z,6.63
2019-03-01T10:49:26.001Z,6.78
2019-03-01T10:54:27.710Z,5.28
2019-03-01T10:56:59.301Z,5.72
2019-03-01T10:59:30.055Z,5.55
2019-03-01T11:02:00.588Z,6.58
2019-03-01T11:07:01.090Z,6.43
2019-03-01T11:09:31.641Z,6.30
2019-03-01T11:14:32.019Z,3.65
2019-03-01T11:17:02.551Z,3.50
2019-03-01T11:22:03.153Z,3.45
2019-03-01T11:24:33.689Z,4.05
2019-03-01T11:29:35.627Z,4.12
2019-03-01T11:32:06.155Z,3.75
2019-03-01T11:37:06.948Z,5.58
2019-03-01T11:42:07.432Z,3.33
2019-03-01T11:47:07.936Z,3.02
2019-03-01T11:52:08.300Z,4.23
2019-03-01T11:54:38.972Z,4.10
2019-03-01T11:59:39.358Z,3.87
2019-03-01T12:02:10.107Z,4.58
2019-03-01T12:07:10.591Z,4.40
2019-03-01T12:12:10.548Z,5.25
2019-03-01T12:17:10.949Z,3.87
2019-03-01T12:22:17.179Z,3.70
2019-03-01T12:24:43.313Z,3.27
2019-03-01T12:29:43.694Z,2.20
2019-03-01T12:34:44.063Z,1.60
2019-03-01T12:37:14.727Z,1.30
2019-03-01T12:42:15.215Z,1.70
2019-03-01T12:47:15.580Z,1.60
2019-03-01T12:49:46.129Z,1.20
2019-03-01T12:54:46.617Z,2.33
2019-03-01T13:02:17.977Z,2.80
2019-03-01T13:07:19.870Z,3.87
2019-03-01T13:12:22.354Z,3.80
2019-03-01T13:14:52.663Z,2.65
2019-03-01T13:19:53.259Z,2.08
2019-03-01T13:22:24.760Z,3.15
2019-03-01T13:24:58.684Z,2.95
2019-03-01T13:27:29.950Z,3.30
2019-03-01T13:30:02.233Z,3.92
2019-03-01T13:32:33.605Z,3.83
2019-03-01T13:35:07.141Z,3.47
2019-03-01T13:37:37.616Z,3.92
2019-03-01T13:42:39.449Z,3.70
2019-03-01T13:47:44.016Z,4.35
2019-03-01T13:50:19.443Z,4.87
2019-03-01T13:52:50.539Z,4.40
2019-03-01T13:55:23.756Z,4.70
2019-03-01T13:57:54.501Z,3.67
2019-03-01T14:00:25.485Z,4.10
2019-03-01T14:02:56.016Z,4.80
2019-03-01T14:05:26.749Z,6.08
2019-03-01T14:07:57.414Z,4.90
2019-03-01T14:10:29.502Z,5.03
2019-03-01T14:12:59.751Z,6.22
2019-03-01T14:15:30.494Z,4.37
2019-03-01T14:18:02.005Z,5.22
2019-03-01T14:20:32.516Z,6.25
2019-03-01T14:23:03.267Z,6.33
2019-03-01T14:25:34.021Z,5.62
2019-03-01T14:28:05.146Z,5.72
2019-03-01T14:30:36.348Z,4.67
2019-03-01T14:35:36.740Z,2.77
2019-03-01T14:38:08.299Z,3.75
2019-03-01T14:40:38.733Z,3.42
2019-03-01T14:43:09.504Z,4.08
2019-03-01T14:45:41.777Z,3.30
2019-03-01T14:48:12.239Z,4.37
2019-03-01T14:53:12.402Z,3.90
2019-03-01T14:58:24.459Z,4.00
2019-03-01T15:01:13.416Z,4.15
2019-03-01T15:03:44.051Z,3.77
2019-03-01T15:08:46.191Z,4.75
2019-03-01T15:11:16.946Z,4.78
2019-03-01T15:13:47.582Z,5.70
2019-03-01T15:18:48.086Z,4.17
2019-03-01T15:21:18.819Z,4.85
2019-03-01T15:23:49.470Z,2.85
2019-03-01T15:26:23.066Z,4.08
2019-03-01T15:28:55.472Z,4.22
2019-03-01T15:31:26.047Z,3.25
2019-03-01T15:33:56.698Z,3.33
2019-03-01T15:36:27.452Z,3.72
2019-03-01T15:38:57.980Z,4.12
2019-03-01T15:43:58.570Z,4.75
2019-03-01T15:46:31.180Z,5.28
2019-03-01T15:49:02.775Z,5.58
2019-03-01T15:51:34.661Z,6.12
2019-03-01T15:54:05.830Z,5.75
2019-03-01T15:56:39.483Z,4.00
2019-03-01T15:59:10.446Z,5.10
2019-03-01T16:01:43.763Z,4.58
2019-03-01T16:04:14.480Z,4.55
2019-03-01T16:06:44.967Z,4.97
2019-03-01T16:11:45.061Z,5.25
2019-03-01T16:14:15.697Z,3.02
2019-03-01T16:16:49.169Z,4.65
2019-03-01T16:19:18.328Z,5.05
2019-03-01T16:24:18.812Z,4.87
2019-03-01T16:29:19.518Z,5.40
2019-03-01T16:31:50.158Z,4.40
2019-03-01T16:36:52.070Z,4.90
2019-03-01T16:39:23.822Z,6.30
2019-03-01T16:41:54.722Z,6.33
2019-03-01T16:46:55.209Z,7.20
2019-03-01T16:51:57.227Z,6.45
2019-03-01T16:54:27.878Z,7.53
2019-03-01T16:59:28.566Z,7.08
2019-03-01T17:01:59.017Z,7.80
2019-03-01T17:04:29.766Z,5.72
2019-03-01T17:07:00.523Z,5.70
2019-03-01T17:09:31.173Z,5.15
2019-03-01T17:12:01.824Z,5.80
2019-03-01T17:17:03.743Z,4.97
2019-03-01T17:19:34.292Z,5.47
2019-03-01T17:24:34.779Z,5.40
2019-03-01T17:29:39.169Z,5.55
2019-03-01T17:32:08.452Z,7.03
2019-03-01T17:37:08.954Z,7.70
2019-03-01T17:39:39.711Z,5.85
2019-03-01T17:44:41.294Z,5.72
2019-03-01T17:47:12.372Z,5.40
2019-03-01T17:49:42.727Z,5.60
2019-03-01T17:52:13.275Z,5.62
2019-03-01T17:54:43.926Z,4.62
2019-03-01T17:59:48.299Z,5.62
2019-03-01T18:02:19.238Z,5.60
2019-03-01T18:04:49.993Z,4.95
2019-03-01T18:07:23.730Z,5.20
2019-03-01T18:09:55.304Z,5.42
2019-03-01T18:12:25.034Z,5.83
2019-03-01T18:14:56.605Z,4.87
2019-03-01T18:17:27.257Z,5.47
2019-03-01T18:22:29.177Z,4.55
2019-03-01T18:25:00.350Z,5.55
2019-03-01T18:27:30.785Z,4.60
2019-03-01T18:32:31.150Z,3.57
2019-03-01T18:37:35.744Z,4.30
2019-03-01T18:40:13.427Z,3.67
2019-03-01T18:42:42.657Z,3.90
2019-03-01T18:45:17.830Z,3.70
2019-03-01T18:47:48.167Z,3.75
2019-03-01T18:50:32.135Z,3.58
2019-03-01T18:53:04.150Z,3.50
2019-03-01T18:55:34.952Z,3.83
2019-03-01T19:00:46.386Z,3.65
2019-03-01T19:03:17.121Z,3.75
2019-03-01T19:05:50.658Z,3.75
2019-03-01T19:08:20.996Z,4.97
2019-03-01T19:13:34.330Z,5.80
2019-03-01T19:16:13.057Z,6.17
2019-03-01T19:18:44.554Z,5.62
2019-03-01T19:21:17.306Z,4.65
2019-03-01T19:23:47.509Z,7.00
2019-03-01T19:26:18.043Z,6.45
2019-03-01T19:31:21.612Z,6.30
2019-03-01T19:33:50.508Z,6.15
2019-03-01T19:38:50.993Z,4.33
2019-03-01T19:41:22.879Z,4.40
2019-03-01T19:43:57.415Z,4.83
2019-03-01T19:46:26.610Z,4.35
2019-03-01T19:48:57.785Z,4.55
2019-03-01T19:51:28.466Z,5.12
2019-03-01T19:54:01.054Z,4.37
2019-03-01T19:56:30.974Z,4.70
2019-03-01T19:59:01.522Z,5.20
2019-03-01T20:01:33.012Z,4.33
2019-03-01T20:04:03.868Z,4.58
2019-03-01T20:09:05.341Z,6.37
2019-03-01T20:11:35.720Z,5.65
2019-03-01T20:14:06.354Z,5.42
2019-03-01T20:16:36.923Z,4.97
2019-03-01T20:19:07.471Z,5.03
2019-03-01T20:21:37.919Z,4.97
2019-03-01T20:26:38.402Z,4.63
2019-03-01T20:31:40.531Z,5.03
2019-03-01T20:34:10.850Z,4.85
2019-03-01T20:39:15.643Z,3.70
2019-03-01T20:41:46.349Z,2.70
2019-03-01T20:44:18.623Z,3.55
2019-03-01T20:46:48.628Z,3.35
2019-03-01T20:51:49.109Z,3.37
2019-03-01T20:56:51.591Z,3.75
2019-03-01T20:59:23.010Z,4.50
2019-03-01T21:01:54.584Z,3.85
2019-03-01T21:04:25.335Z,4.35
2019-03-01T21:06:55.883Z,3.60
2019-03-01T21:11:57.827Z,5.30
2019-03-01T21:14:28.645Z,5.00
2019-03-01T21:16:59.310Z,5.40
2019-03-01T21:22:01.613Z,6.25
2019-03-01T21:24:32.178Z,5.25
2019-03-01T21:27:02.631Z,4.58
2019-03-01T21:32:03.013Z,4.50
2019-03-01T21:34:34.881Z,4.50
2019-03-01T21:37:05.529Z,5.50
2019-03-01T21:42:05.927Z,3.65
2019-03-01T21:47:06.988Z,4.23
2019-03-01T21:49:38.291Z,4.50
2019-03-01T21:54:38.678Z,5.20
2019-03-01T21:59:39.055Z,4.87
2019-03-01T22:04:39.732Z,3.67
2019-03-01T22:09:40.332Z,5.20
2019-03-01T22:14:40.821Z,4.67
2019-03-01T22:19:42.532Z,6.17
2019-03-01T22:22:13.076Z,6.78
2019-03-01T22:27:13.464Z,9.07
2019-03-01T22:29:47.166Z,7.72
2019-03-01T22:32:16.000Z,9.80
2019-03-01T22:37:16.377Z,12.10
2019-03-01T22:39:48.426Z,12.88
2019-03-01T22:42:19.202Z,12.85
2019-03-01T22:47:19.804Z,19.37
2019-03-01T22:52:20.270Z,17.93
2019-03-01T22:54:50.925Z,18.87
2019-03-01T22:59:52.960Z,16.85
2019-03-01T23:02:24.614Z,19.20
2019-03-01T23:04:55.491Z,18.70
2019-03-01T23:07:26.585Z,18.90
2019-03-01T23:09:57.918Z,18.65
2019-03-01T23:12:28.671Z,15.05
2019-03-01T23:15:02.935Z,13.68
2019-03-01T23:17:31.611Z,13.88
2019-03-01T23:20:02.366Z,14.07
2019-03-01T23:22:33.224Z,10.53
2019-03-01T23:25:04.266Z,11.00
2019-03-01T23:27:34.609Z,13.18
2019-03-01T23:30:07.100Z,11.85
2019-03-01T23:32:37.651Z,10.03
2019-03-01T23:35:08.524Z,8.63
2019-03-01T23:37:39.903Z,8.43
2019-03-01T23:40:10.321Z,7.72
2019-03-01T23:45:13.801Z,6.92
2019-03-01T23:47:43.828Z,6.22
2019-03-01T23:52:44.247Z,6.97
2019-03-01T23:57:46.230Z,6.37
